Terminal Aerodrome Forecast
Issued by NWS

Home | Current Version | Previous Version | Text Only | Print | Product List | Glossary Off
Versions: 1 2 3 4 5 6 7 8 9 10 11 12 13 14 15 16 17 18

000
FTUS43 KMPX 171746
TAFAXN
TAF
KAXN 171746Z 1718/1818 19012G20KT P6SM FEW250
     FM180100 16008KT P6SM VCTS SCT040 BKN080CB
     FM180500 13005KT P6SM BKN080
     FM180800 05005KT P6SM BKN080
     FM181600 06009KT P6SM BKN050=

USA.gov is the U.S. government's official web portal to all federal, state and local government web resources and services.